Terminal Aerodrome Forecast
Issued by NWS

Current Version | Previous Version | Graphics & Text | Print | Product List | Glossary On
Versions: 1 2 3 4 5 6 7 8 9 10 11 12 13 14 15 16 17 18 19 20 21 22 23 24 25
959
FTUS41 KRLX 121039 AAA
TAFCKB
TAF AMD
KCKB 121039Z 1211/1306 00000KT P6SM BKN250
     FM121600 28005KT 3SM -SN OVC030
     FM130100 27011G21KT 3SM -SHSN OVC025
     FM130200 29014G25KT 2SM -SHSN OVC020=

USA.gov is the U.S. government's official web portal to all federal, state and local government web resources and services.